Аэропорт: Запорожье. Запорожье

ICAO: UKDE

METAR:
2022-01-28 08:00:00
UKDE 280800Z 16005MPS 110V190 4800 -SN OVC011 M03/M05 Q1014 NOSIG
METAR:
2022-01-28 05:02:00
TAF UKDE 280502Z 2806/2815 17005MPS 3100 -SN BR OVC007 TXM00/2815Z TNM04/2806Z TEMPO 2806/2815 20007G12MPS 0300 FZRA SN FZFG VV001